createdAt,value
2024-04-25T00:00:04.646Z,0.89
2024-04-25T00:01:04.685Z,0.17
2024-04-25T00:02:04.626Z,0.72
2024-04-25T00:03:04.859Z,0.61
2024-04-25T00:04:04.672Z,1.06
2024-04-25T00:05:04.663Z,0.61
2024-04-25T00:06:04.628Z,0.72
2024-04-25T00:08:04.650Z,0.72
2024-04-25T00:09:04.603Z,0.61
2024-04-25T00:10:04.671Z,0.72
2024-04-25T00:11:04.671Z,0.89
2024-04-25T00:12:04.658Z,0.72
2024-04-25T00:13:04.622Z,0.44
2024-04-25T00:14:04.634Z,0.72
2024-04-25T00:15:04.616Z,0.89
2024-04-25T00:16:04.630Z,0.44
2024-04-25T00:17:04.725Z,0.72
2024-04-25T00:18:04.641Z,0.89
2024-04-25T00:19:04.621Z,0.89
2024-04-25T00:20:04.622Z,0.61
2024-04-25T00:21:04.613Z,0.89
2024-04-25T00:22:04.601Z,0.89
2024-04-25T00:23:04.746Z,1.06
2024-04-25T00:25:04.624Z,0.72
2024-04-25T00:26:04.642Z,0.72
2024-04-25T00:27:04.639Z,1.06
2024-04-25T00:28:04.618Z,1.17
2024-04-25T00:29:04.617Z,0.89
2024-04-25T00:30:04.630Z,0.72
2024-04-25T00:32:04.685Z,0.89
2024-04-25T00:33:04.672Z,1.06
2024-04-25T00:34:04.680Z,0.89
2024-04-25T00:35:04.663Z,0.61
2024-04-25T00:36:04.651Z,0.61
2024-04-25T00:37:04.645Z,0.89
2024-04-25T00:38:04.665Z,0.72
2024-04-25T00:39:04.635Z,0
2024-04-25T00:40:04.626Z,0.61
2024-04-25T00:41:04.668Z,0.61
2024-04-25T00:42:04.671Z,0.44
2024-04-25T00:43:04.620Z,0.17
2024-04-25T00:44:04.628Z,0.89
2024-04-25T00:46:04.643Z,0.44
2024-04-25T00:47:04.694Z,0.44
2024-04-25T00:48:04.719Z,0.44
2024-04-25T00:49:04.622Z,0.44
2024-04-25T00:50:04.663Z,0.17
2024-04-25T00:51:04.644Z,0.44
2024-04-25T00:52:04.620Z,0.72
2024-04-25T00:53:04.686Z,0.28
2024-04-25T00:54:04.632Z,0.44
2024-04-25T00:55:04.622Z,0.44
2024-04-25T00:56:04.643Z,0.61
2024-04-25T00:58:04.703Z,0.61
2024-04-25T00:59:04.661Z,0.61
2024-04-25T01:00:04.641Z,0.28
2024-04-25T01:01:04.679Z,0.89
2024-04-25T01:02:04.739Z,0.89
2024-04-25T01:03:04.738Z,0.72
2024-04-25T01:04:04.656Z,0.72
2024-04-25T01:05:04.670Z,1.17
2024-04-25T01:06:04.640Z,0.72
2024-04-25T01:08:04.658Z,0.72
2024-04-25T01:10:04.634Z,0.89
2024-04-25T01:11:04.714Z,0.89
2024-04-25T01:12:04.656Z,0.44
2024-04-25T01:14:04.671Z,0.72
2024-04-25T01:15:04.679Z,0.61
2024-04-25T01:16:04.647Z,0.89
2024-04-25T01:17:04.756Z,0.72
2024-04-25T01:18:04.698Z,0.61
2024-04-25T01:19:04.631Z,0.44
2024-04-25T01:20:04.671Z,0.61
2024-04-25T01:21:04.662Z,0.44
2024-04-25T01:22:04.689Z,0.61
2024-04-25T01:23:04.646Z,0.28
2024-04-25T01:24:04.705Z,0.61
2024-04-25T01:25:04.645Z,0.61
2024-04-25T01:26:04.742Z,0.28
2024-04-25T01:27:04.645Z,0.17
2024-04-25T01:28:04.657Z,0.61
2024-04-25T01:29:04.655Z,0.28
2024-04-25T01:30:04.679Z,0.72
2024-04-25T01:32:04.649Z,0.44
2024-04-25T01:33:04.766Z,0.61
2024-04-25T01:34:04.806Z,0.44
2024-04-25T01:36:04.643Z,0.28
2024-04-25T01:37:04.653Z,0.44
2024-04-25T01:38:04.684Z,0.61
2024-04-25T01:39:04.682Z,0.56
2024-04-25T01:40:04.664Z,0.44
2024-04-25T01:41:04.656Z,0.44
2024-04-25T01:42:04.657Z,0.72
2024-04-25T01:43:04.637Z,0.28
2024-04-25T01:44:04.653Z,-0.17
2024-04-25T01:45:04.651Z,0.61
2024-04-25T01:46:04.677Z,-0.17
2024-04-25T01:48:04.705Z,0.61
2024-04-25T01:49:04.706Z,0.17
2024-04-25T01:51:04.664Z,0
2024-04-25T01:52:04.647Z,0.44
2024-04-25T01:53:04.676Z,0.44
2024-04-25T01:54:04.643Z,0.61
2024-04-25T01:55:04.678Z,0.28
2024-04-25T01:56:04.673Z,0.72
2024-04-25T01:57:04.670Z,-0.17
2024-04-25T01:58:04.642Z,0.61
2024-04-25T01:59:04.699Z,0.17
2024-04-25T02:00:04.650Z,-0.17
2024-04-25T02:01:04.654Z,-0.17
2024-04-25T02:02:04.714Z,0.61
2024-04-25T02:03:04.721Z,-0.17
2024-04-25T02:04:04.736Z,0.28
2024-04-25T02:05:04.660Z,0
2024-04-25T02:07:04.673Z,0
2024-04-25T02:08:04.722Z,0
2024-04-25T02:10:04.666Z,0
2024-04-25T02:12:04.707Z,0.28
2024-04-25T02:13:04.658Z,0.28
2024-04-25T02:14:04.684Z,0.44
2024-04-25T02:15:04.672Z,0.17
2024-04-25T02:17:04.679Z,0.44
2024-04-25T02:18:04.868Z,0.44
2024-04-25T02:19:04.688Z,0
2024-04-25T02:20:04.695Z,0.17
2024-04-25T02:21:04.650Z,0.17
2024-04-25T02:22:04.658Z,0.28
2024-04-25T02:24:04.688Z,0.61
2024-04-25T02:25:04.660Z,0.44
2024-04-25T02:26:04.743Z,0.28
2024-04-25T02:27:04.698Z,-0.17
2024-04-25T02:28:04.663Z,0.17
2024-04-25T02:29:04.740Z,-0.28
2024-04-25T02:31:04.666Z,-0.17
2024-04-25T02:32:04.734Z,-0.17
2024-04-25T02:33:04.760Z,-0.28
2024-04-25T02:34:04.682Z,0
2024-04-25T02:35:04.711Z,-0.17
2024-04-25T02:36:04.668Z,-0.17
2024-04-25T02:37:04.675Z,-0.17
2024-04-25T02:38:04.746Z,0
2024-04-25T02:39:04.683Z,0
2024-04-25T02:41:04.717Z,-0.28
2024-04-25T02:42:04.678Z,-0.39
2024-04-25T02:44:04.734Z,-0.28
2024-04-25T02:45:04.695Z,-0.17
2024-04-25T02:47:04.706Z,-0.39
2024-04-25T02:48:04.781Z,-0.28
2024-04-25T02:49:04.705Z,-0.39
2024-04-25T02:50:04.734Z,-0.39
2024-04-25T02:51:04.684Z,-0.39
2024-04-25T02:53:04.717Z,-0.56
2024-04-25T02:54:04.697Z,-0.56
2024-04-25T02:55:04.687Z,-0.28
2024-04-25T02:57:04.688Z,-0.28
2024-04-25T02:59:04.800Z,-0.28
2024-04-25T03:00:04.671Z,-0.56
2024-04-25T03:01:04.844Z,-0.17
2024-04-25T03:02:04.807Z,-0.28
2024-04-25T03:03:04.785Z,-0.56
2024-04-25T03:04:04.684Z,-0.39
2024-04-25T03:05:04.712Z,-0.39
2024-04-25T03:06:04.720Z,-0.39
2024-04-25T03:07:04.720Z,-0.17
2024-04-25T03:09:04.681Z,-0.17
2024-04-25T03:10:04.692Z,-0.17
2024-04-25T03:11:04.715Z,0
2024-04-25T03:12:04.742Z,-0.28
2024-04-25T03:13:04.692Z,-0.17
2024-04-25T03:14:04.718Z,-0.28
2024-04-25T03:15:04.692Z,0.28
2024-04-25T03:16:04.693Z,-0.17
2024-04-25T03:17:04.693Z,-0.28
2024-04-25T03:18:04.947Z,-0.39
2024-04-25T03:19:04.856Z,-0.28
2024-04-25T03:20:04.769Z,-0.17
2024-04-25T03:21:04.706Z,-0.17
2024-04-25T03:22:04.714Z,0
2024-04-25T03:23:04.792Z,-0.17
2024-04-25T03:24:04.696Z,0
2024-04-25T03:25:07.199Z,-0.39
2024-04-25T03:26:04.842Z,-0.17
2024-04-25T03:27:04.704Z,-0.17
2024-04-25T03:29:04.712Z,-0.17
2024-04-25T03:31:04.724Z,-0.28
2024-04-25T03:32:04.844Z,-0.17
2024-04-25T03:34:04.713Z,-0.28
2024-04-25T03:36:04.730Z,0
2024-04-25T03:37:04.716Z,-0.17
2024-04-25T03:38:05.671Z,0.17
2024-04-25T03:39:04.716Z,0
2024-04-25T03:41:04.816Z,-0.17
2024-04-25T03:42:04.716Z,-0.17
2024-04-25T03:43:04.721Z,0.44
2024-04-25T03:44:04.789Z,0.17
2024-04-25T03:45:04.720Z,0
2024-04-25T03:46:04.724Z,0.17
2024-04-25T03:47:04.835Z,0.17
2024-04-25T03:49:05.025Z,-0.28
2024-04-25T03:51:04.718Z,0.17
2024-04-25T03:52:04.728Z,0.17
2024-04-25T03:53:04.733Z,-0.28
2024-04-25T03:54:04.749Z,-0.17
2024-04-25T03:55:04.734Z,0.17
2024-04-25T03:57:04.740Z,0.28
2024-04-25T03:58:04.732Z,0.44
2024-04-25T03:59:04.751Z,0.28
2024-04-25T04:00:04.751Z,0
2024-04-25T04:01:04.846Z,0
2024-04-25T04:02:04.800Z,0
2024-04-25T04:03:04.906Z,0.28
2024-04-25T04:05:04.769Z,-0.17
2024-04-25T04:08:04.770Z,0.44
2024-04-25T04:09:04.754Z,0.28
2024-04-25T04:10:04.762Z,0.44
2024-04-25T04:11:04.860Z,0
2024-04-25T04:12:04.800Z,0
2024-04-25T04:13:04.741Z,-0.28
2024-04-25T04:14:04.824Z,0.17
2024-04-25T04:16:04.830Z,0
2024-04-25T04:18:04.936Z,0.61
2024-04-25T04:19:04.764Z,0
2024-04-25T04:20:04.826Z,0
2024-04-25T04:22:04.834Z,0.61
2024-04-25T04:24:04.764Z,0.44
2024-04-25T04:25:04.763Z,0.44
2024-04-25T04:26:04.774Z,0.28
2024-04-25T04:27:04.759Z,0.61
2024-04-25T04:28:04.764Z,0.44
2024-04-25T04:29:04.803Z,0.61
2024-04-25T04:30:04.777Z,0.44
2024-04-25T04:31:04.786Z,0.28
2024-04-25T04:32:04.856Z,0.72
2024-04-25T04:33:04.888Z,0.61
2024-04-25T04:34:04.910Z,0.61
2024-04-25T04:35:04.792Z,0.28
2024-04-25T04:36:04.780Z,0.44
2024-04-25T04:37:04.824Z,0.28
2024-04-25T04:38:04.817Z,0.44
2024-04-25T04:41:04.861Z,0.61
2024-04-25T04:42:04.795Z,0.44
2024-04-25T04:43:04.797Z,0.28
2024-04-25T04:45:04.806Z,0.44
2024-04-25T04:46:04.990Z,0.61
2024-04-25T04:47:04.829Z,0.72
2024-04-25T04:48:06.132Z,0.44
2024-04-25T04:49:04.856Z,0.28
2024-04-25T04:50:04.833Z,0
2024-04-25T04:51:04.868Z,0.44
2024-04-25T04:53:04.813Z,-0.17
2024-04-25T04:54:04.816Z,0.17
2024-04-25T04:55:04.811Z,0.44
2024-04-25T04:56:04.834Z,-0.28
2024-04-25T04:57:04.821Z,0.44
2024-04-25T04:58:04.876Z,0.44
2024-04-25T04:59:04.830Z,0.44
2024-04-25T05:00:04.844Z,0.44
2024-04-25T05:02:04.913Z,0.44
2024-04-25T05:03:05.008Z,0.61
2024-04-25T05:04:04.927Z,0.28
2024-04-25T05:05:04.858Z,0
2024-04-25T05:06:06.585Z,0.72
2024-04-25T05:07:04.853Z,0.44
2024-04-25T05:08:04.905Z,0.17
2024-04-25T05:09:04.837Z,0.28
2024-04-25T05:10:04.903Z,0.72
2024-04-25T05:11:04.944Z,0.44
2024-04-25T05:12:05.077Z,0.44
2024-04-25T05:13:04.977Z,0.44
2024-04-25T05:14:04.882Z,0.61
2024-04-25T05:15:04.875Z,0
2024-04-25T05:16:05.020Z,0.28
2024-04-25T05:18:04.916Z,0.72
2024-04-25T05:19:04.951Z,0.61
2024-04-25T05:20:04.878Z,0.61
2024-04-25T05:21:04.905Z,0.61
2024-04-25T05:23:04.895Z,0.89
2024-04-25T05:24:04.991Z,0.61
2024-04-25T05:26:04.933Z,0.72
2024-04-25T05:27:04.925Z,0.89
2024-04-25T05:28:04.952Z,1.17
2024-04-25T05:29:04.941Z,1.33
2024-04-25T05:30:04.856Z,1.33
2024-04-25T05:31:04.924Z,1.17
2024-04-25T05:33:05.200Z,1.17
2024-04-25T05:34:04.964Z,1.72
2024-04-25T05:36:04.889Z,1.72
2024-04-25T05:37:04.962Z,1.89
2024-04-25T05:38:04.921Z,1.89
2024-04-25T05:39:04.898Z,2
2024-04-25T05:40:04.957Z,2.61
2024-04-25T05:41:04.948Z,2.89
2024-04-25T05:42:04.923Z,3.33
2024-04-25T05:43:05.019Z,4
2024-04-25T05:45:04.914Z,5.17
2024-04-25T05:46:05.070Z,4.72
2024-04-25T05:47:04.946Z,5.72
2024-04-25T05:49:04.922Z,6
2024-04-25T05:50:07.768Z,6.28
2024-04-25T05:51:04.964Z,7.28
2024-04-25T05:52:04.925Z,7.17
2024-04-25T05:53:05.097Z,6.56
2024-04-25T05:54:04.939Z,6.56
2024-04-25T05:56:05.036Z,8.67
2024-04-25T05:57:04.907Z,8.83
2024-04-25T05:58:04.957Z,9.28
2024-04-25T05:59:04.944Z,9.28
2024-04-25T06:00:04.961Z,10.17
2024-04-25T06:01:04.988Z,11.33
2024-04-25T06:02:04.889Z,9.44
2024-04-25T06:03:05.083Z,8.44
2024-04-25T06:04:05.048Z,8.61
2024-04-25T06:06:04.957Z,6.72
2024-04-25T06:08:04.960Z,7.17
2024-04-25T06:10:04.868Z,6.39
2024-04-25T06:11:05.033Z,5.61
2024-04-25T06:13:04.998Z,4.89
2024-04-25T06:14:04.959Z,5
2024-04-25T06:16:04.862Z,5.17
2024-04-25T06:17:05.010Z,5
2024-04-25T06:18:05.075Z,4
2024-04-25T06:19:04.880Z,4.17
2024-04-25T06:21:04.873Z,6.11
2024-04-25T06:22:04.857Z,8.33
2024-04-25T06:23:04.902Z,9.89
2024-04-25T06:24:04.882Z,9.89
2024-04-25T06:26:04.865Z,10.94
2024-04-25T06:27:04.871Z,10.33
2024-04-25T06:29:04.876Z,9.89
2024-04-25T06:30:04.884Z,9.89
2024-04-25T06:32:05.059Z,6.28
2024-04-25T06:33:05.065Z,6
2024-04-25T06:34:05.082Z,5
2024-04-25T06:35:04.868Z,4.89
2024-04-25T06:36:04.866Z,4.44
2024-04-25T06:37:04.873Z,4.56
2024-04-25T06:38:04.880Z,5.72
2024-04-25T06:39:04.884Z,9.28
2024-04-25T06:40:04.862Z,10.94
2024-04-25T06:41:04.873Z,11.22
2024-04-25T06:42:04.895Z,11.67
2024-04-25T06:44:07.648Z,11.06
2024-04-25T06:45:04.890Z,11.22
2024-04-25T06:46:04.880Z,10.61
2024-04-25T06:47:04.882Z,10.78
2024-04-25T06:48:04.988Z,10.5
2024-04-25T06:50:04.959Z,10.94
2024-04-25T06:52:04.891Z,9.44
2024-04-25T06:53:04.892Z,11.06
2024-04-25T06:54:04.893Z,10.61
2024-04-25T06:55:04.881Z,11.22
2024-04-25T06:56:04.902Z,10.94
2024-04-25T06:57:04.888Z,11.56
2024-04-25T06:58:04.902Z,12.22
2024-04-25T06:59:04.915Z,12.39
2024-04-25T07:00:04.918Z,13.11
2024-04-25T07:01:04.923Z,11.78
2024-04-25T07:03:04.931Z,8
2024-04-25T07:05:04.900Z,7.72
2024-04-25T07:06:04.911Z,7.61
2024-04-25T07:07:04.955Z,7.89
2024-04-25T07:08:04.908Z,7.28
2024-04-25T07:09:04.914Z,7.17
2024-04-25T07:10:04.923Z,6.11
2024-04-25T07:11:04.988Z,7.17
2024-04-25T07:13:04.911Z,9.89
2024-04-25T07:14:04.924Z,10
2024-04-25T07:16:04.911Z,10.33
2024-04-25T07:17:04.942Z,10.78
2024-04-25T07:20:04.914Z,9.89
2024-04-25T07:21:04.937Z,11.67
2024-04-25T07:22:04.928Z,11.94
2024-04-25T07:23:04.930Z,11.06
2024-04-25T07:25:04.915Z,10.33
2024-04-25T07:26:04.915Z,10
2024-04-25T07:27:04.904Z,9.61
2024-04-25T07:28:04.917Z,10.33
2024-04-25T07:29:04.941Z,9.72
2024-04-25T07:30:04.915Z,9.89
2024-04-25T07:31:04.945Z,9.17
2024-04-25T07:33:04.991Z,8.61
2024-04-25T07:34:04.990Z,8.67
2024-04-25T07:35:04.962Z,8.61
2024-04-25T07:36:04.927Z,8
2024-04-25T07:38:04.940Z,7.72
2024-04-25T07:39:04.980Z,6.72
2024-04-25T07:40:04.918Z,6.39
2024-04-25T07:41:04.909Z,7.61
2024-04-25T07:42:04.920Z,7.17
2024-04-25T07:43:04.941Z,8
2024-04-25T07:44:04.924Z,7.89
2024-04-25T07:45:04.926Z,7.61
2024-04-25T07:47:04.955Z,6.72
2024-04-25T07:49:04.981Z,7.61
2024-04-25T07:50:04.919Z,8.17
2024-04-25T07:51:04.958Z,8
2024-04-25T07:52:04.922Z,8
2024-04-25T07:53:04.939Z,8.44
2024-04-25T07:54:04.964Z,8
2024-04-25T07:56:04.930Z,6.56
2024-04-25T07:57:04.941Z,6.56
2024-04-25T07:58:04.948Z,6
2024-04-25T07:59:04.911Z,6.28
2024-04-25T08:00:04.930Z,6.72
2024-04-25T08:01:04.998Z,6.78
2024-04-25T08:03:05.011Z,6.22
2024-04-25T08:05:04.958Z,5.56
2024-04-25T08:06:04.927Z,5.94
2024-04-25T08:07:04.931Z,5.94
2024-04-25T08:08:04.929Z,6.67
2024-04-25T08:09:04.934Z,6.94
2024-04-25T08:10:04.961Z,7.39
2024-04-25T08:11:04.973Z,7.5
2024-04-25T08:12:04.972Z,6.94
2024-04-25T08:14:04.946Z,6.67
2024-04-25T08:15:04.927Z,6.39
2024-04-25T08:16:05.052Z,5.67
2024-04-25T08:18:05.058Z,6.67
2024-04-25T08:19:04.939Z,6.94
2024-04-25T08:20:04.931Z,6.06
2024-04-25T08:21:04.938Z,5.39
2024-04-25T08:22:04.939Z,6.39
2024-04-25T08:23:04.956Z,7.22
2024-04-25T08:26:05.007Z,8.94
2024-04-25T08:27:04.955Z,8.78
2024-04-25T08:29:04.947Z,10
2024-04-25T08:30:04.938Z,9.78
2024-04-25T08:31:04.966Z,10.11
2024-04-25T08:32:04.939Z,10.22
2024-04-25T08:33:05.024Z,10.39
2024-04-25T08:34:05.126Z,10.39
2024-04-25T08:35:04.958Z,9.78
2024-04-25T08:37:04.965Z,8.78
2024-04-25T08:40:04.990Z,7.94
2024-04-25T08:41:04.951Z,7.94
2024-04-25T08:42:04.966Z,7.22
2024-04-25T08:43:04.926Z,7.67
2024-04-25T08:44:04.990Z,8.11
2024-04-25T08:46:04.977Z,7.5
2024-04-25T08:47:04.971Z,6.78
2024-04-25T08:49:04.965Z,6.39
2024-04-25T08:50:04.957Z,7.22
2024-04-25T08:51:04.967Z,7.22
2024-04-25T08:53:04.970Z,7.5
2024-04-25T08:54:04.968Z,7.11
2024-04-25T08:56:04.966Z,6.06
2024-04-25T08:58:05.036Z,6.39
2024-04-25T09:00:04.967Z,7.11
2024-04-25T09:01:04.970Z,7.22
2024-04-25T09:02:04.962Z,8.11
2024-04-25T09:03:05.133Z,8.5
2024-04-25T09:05:04.965Z,8.78
2024-04-25T09:06:04.973Z,9.06
2024-04-25T09:07:04.970Z,9.67
2024-04-25T09:08:04.972Z,8.94
2024-04-25T09:09:04.976Z,8.5
2024-04-25T09:10:05.009Z,8.5
2024-04-25T09:11:04.980Z,8.78
2024-04-25T09:12:08.117Z,8.61
2024-04-25T09:13:04.987Z,8.5
2024-04-25T09:14:05.002Z,7.78
2024-04-25T09:15:04.992Z,7.78
2024-04-25T09:16:05.116Z,7.5
2024-04-25T09:17:04.981Z,8.28
2024-04-25T09:18:05.060Z,8.5
2024-04-25T09:19:05.009Z,8.5
2024-04-25T09:20:04.996Z,8.94
2024-04-25T09:22:05.008Z,9.22
2024-04-25T09:23:06.564Z,9.22
2024-04-25T09:24:04.992Z,8.78
2024-04-25T09:25:05.077Z,8.94
2024-04-25T09:26:04.996Z,7.78
2024-04-25T09:27:05.000Z,8.11
2024-04-25T09:28:05.015Z,8.94
2024-04-25T09:29:04.989Z,7.67
2024-04-25T09:30:05.082Z,8.39
2024-04-25T09:31:04.993Z,9.94
2024-04-25T09:32:05.034Z,8.94
2024-04-25T09:33:05.176Z,8.61
2024-04-25T09:34:05.067Z,7.39
2024-04-25T09:36:05.003Z,8.61
2024-04-25T09:37:04.987Z,8.28
2024-04-25T09:39:05.042Z,8.61
2024-04-25T09:41:04.998Z,9.06
2024-04-25T09:42:04.992Z,9.94
2024-04-25T09:44:05.021Z,8.78
2024-04-25T09:46:05.301Z,7.67
2024-04-25T09:47:05.024Z,8.11
2024-04-25T09:48:05.179Z,8.78
2024-04-25T09:49:04.992Z,9.39
2024-04-25T09:50:05.015Z,9.67
2024-04-25T09:51:04.993Z,9.67
2024-04-25T09:52:05.005Z,9.94
2024-04-25T09:53:05.036Z,10.83
2024-04-25T09:55:05.002Z,11.94
2024-04-25T09:56:05.027Z,11.94
2024-04-25T09:57:05.031Z,11.94
2024-04-25T09:58:05.000Z,12.11
2024-04-25T09:59:05.028Z,11.83
2024-04-25T10:01:05.093Z,12.28
2024-04-25T10:02:05.164Z,11.11
2024-04-25T10:03:05.055Z,11
2024-04-25T10:04:05.062Z,10.83
2024-04-25T10:05:05.004Z,11.44
2024-04-25T10:06:05.035Z,11
2024-04-25T10:07:05.042Z,10.83
2024-04-25T10:09:05.008Z,9.94
2024-04-25T10:10:05.028Z,10.67
2024-04-25T10:11:06.382Z,10.56
2024-04-25T10:12:05.097Z,9.78
2024-04-25T10:13:05.024Z,8.78
2024-04-25T10:14:05.029Z,8.28
2024-04-25T10:16:05.020Z,8.5
2024-04-25T10:17:05.034Z,8.61
2024-04-25T10:18:05.160Z,8.39
2024-04-25T10:19:05.189Z,8.5
2024-04-25T10:20:05.394Z,8.61
2024-04-25T10:21:05.121Z,9.17
2024-04-25T10:23:05.036Z,8.94
2024-04-25T10:25:05.134Z,8.61
2024-04-25T10:27:05.043Z,8.17
2024-04-25T10:28:05.105Z,8.33
2024-04-25T10:30:05.037Z,8.83
2024-04-25T10:31:05.045Z,9.44
2024-04-25T10:32:05.038Z,8.67
2024-04-25T10:33:05.230Z,8.33
2024-04-25T10:34:08.150Z,8.44
2024-04-25T10:35:05.062Z,8.17
2024-04-25T10:36:05.066Z,9
2024-04-25T10:38:05.048Z,8.33
2024-04-25T10:40:05.059Z,9.44
2024-04-25T10:41:05.043Z,9
2024-04-25T10:42:05.052Z,9.28
2024-04-25T10:43:05.731Z,9
2024-04-25T10:44:05.033Z,8.67
2024-04-25T10:45:05.060Z,8.67
2024-04-25T10:46:05.050Z,8.33
2024-04-25T10:48:05.206Z,9.28
2024-04-25T10:49:05.241Z,8.83
2024-04-25T10:51:05.056Z,8.44
2024-04-25T10:52:05.083Z,9.17
2024-04-25T10:53:05.051Z,9.28
2024-04-25T10:54:05.067Z,10
2024-04-25T10:56:05.081Z,9
2024-04-25T10:57:05.092Z,8
2024-04-25T10:58:05.054Z,7.89
2024-04-25T10:59:05.078Z,7.89
2024-04-25T11:00:05.064Z,7.61
2024-04-25T11:02:05.129Z,7.17
2024-04-25T11:03:05.063Z,7.44
2024-04-25T11:04:05.315Z,7.44
2024-04-25T11:05:05.070Z,6.89
2024-04-25T11:06:05.123Z,6.44
2024-04-25T11:07:07.000Z,6
2024-04-25T11:08:05.080Z,5.33
2024-04-25T11:10:05.066Z,5.5
2024-04-25T11:11:05.095Z,5.17
2024-04-25T11:13:05.074Z,5.5
2024-04-25T11:14:05.075Z,5.61
2024-04-25T11:15:05.066Z,5.5
2024-04-25T11:16:05.081Z,5.61
2024-04-25T11:17:05.070Z,5.89
2024-04-25T11:18:07.474Z,5.89
2024-04-25T11:19:11.023Z,5.89
2024-04-25T11:22:05.482Z,6.17
2024-04-25T11:24:05.181Z,5.61
2024-04-25T11:25:05.080Z,5.72
2024-04-25T11:26:05.076Z,6
2024-04-25T11:27:05.076Z,6
2024-04-25T11:29:05.090Z,6.17
2024-04-25T11:31:05.088Z,5.5
2024-04-25T11:32:05.097Z,6.17
2024-04-25T11:33:05.249Z,6
2024-04-25T11:34:05.129Z,6.61
2024-04-25T11:36:05.084Z,6.33
2024-04-25T11:38:05.121Z,6.89
2024-04-25T11:39:05.077Z,7.17
2024-04-25T11:40:05.165Z,7.33
2024-04-25T11:41:05.117Z,7.33
2024-04-25T11:42:05.112Z,7.44
2024-04-25T11:44:05.099Z,7.39
2024-04-25T11:45:05.107Z,7.44
2024-04-25T11:46:05.128Z,8
2024-04-25T11:47:05.098Z,8.39
2024-04-25T11:48:05.174Z,8.39
2024-04-25T11:49:05.268Z,8.5
2024-04-25T11:50:05.157Z,8.17
2024-04-25T11:52:05.083Z,8.94
2024-04-25T11:53:05.105Z,9.39
2024-04-25T11:54:05.129Z,9.5
2024-04-25T11:55:05.112Z,10.22
2024-04-25T11:57:05.116Z,10.67
2024-04-25T11:59:05.104Z,10.22
2024-04-25T12:00:05.102Z,9.78
2024-04-25T12:01:05.143Z,10.11
2024-04-25T12:03:05.122Z,10.22
2024-04-25T12:04:05.108Z,10.22
2024-04-25T12:05:05.119Z,10.11
2024-04-25T12:06:05.111Z,10.67
2024-04-25T12:08:05.294Z,10.11
2024-04-25T12:09:05.119Z,9.5
2024-04-25T12:10:05.180Z,9.78
2024-04-25T12:11:05.123Z,9.78
2024-04-25T12:13:05.122Z,9.94
2024-04-25T12:14:05.159Z,9.06
2024-04-25T12:15:05.127Z,9.67
2024-04-25T12:17:05.119Z,8.78
2024-04-25T12:18:05.268Z,9.06
2024-04-25T12:19:05.125Z,10.22
2024-04-25T12:21:05.109Z,9.94
2024-04-25T12:22:05.111Z,9.67
2024-04-25T12:23:05.107Z,8.67
2024-04-25T12:24:05.113Z,8
2024-04-25T12:25:05.121Z,7.33
2024-04-25T12:26:05.141Z,7.72
2024-04-25T12:27:05.138Z,7.33
2024-04-25T12:28:05.112Z,8
2024-04-25T12:29:05.128Z,7.72
2024-04-25T12:30:05.132Z,8.83
2024-04-25T12:32:05.130Z,8
2024-04-25T12:34:05.324Z,7.61
2024-04-25T12:35:05.128Z,7.44
2024-04-25T12:36:05.129Z,7.33
2024-04-25T12:37:05.116Z,7.44
2024-04-25T12:38:05.117Z,8.17
2024-04-25T12:39:05.130Z,9.17
2024-04-25T12:40:05.130Z,9.72
2024-04-25T12:41:05.127Z,10.33
2024-04-25T12:42:05.143Z,9.44
2024-04-25T12:43:05.141Z,9.56
2024-04-25T12:44:05.146Z,9.44
2024-04-25T12:45:05.116Z,9.28
2024-04-25T12:46:05.221Z,9
2024-04-25T12:48:05.405Z,10.61
2024-04-25T12:50:05.132Z,10.72
2024-04-25T12:51:05.141Z,10.89
2024-04-25T12:52:05.121Z,11.06
2024-04-25T12:53:05.148Z,11.61
2024-04-25T12:55:05.142Z,11.61
2024-04-25T12:56:05.136Z,11.89
2024-04-25T12:57:05.130Z,11.78
2024-04-25T12:58:05.136Z,11.06
2024-04-25T12:59:05.202Z,9.72
2024-04-25T13:01:05.151Z,9.28
2024-04-25T13:03:05.188Z,10.33
2024-04-25T13:04:05.134Z,10.33
2024-04-25T13:05:05.158Z,10.61
2024-04-25T13:07:05.157Z,11.17
2024-04-25T13:08:05.136Z,10.33
2024-04-25T13:09:05.148Z,11.06
2024-04-25T13:11:05.144Z,11.06
2024-04-25T13:12:05.161Z,11.17
2024-04-25T13:13:05.206Z,11.33
2024-04-25T13:15:05.140Z,11.06
2024-04-25T13:16:05.133Z,11.17
2024-04-25T13:17:05.142Z,11.33
2024-04-25T13:18:05.311Z,11.78
2024-04-25T13:20:05.136Z,12.78
2024-04-25T13:21:05.187Z,13.11
2024-04-25T13:22:05.136Z,11.17
2024-04-25T13:23:05.141Z,10.44
2024-04-25T13:25:05.149Z,10.61
2024-04-25T13:26:05.138Z,10.33
2024-04-25T13:27:05.243Z,9.89
2024-04-25T13:28:05.149Z,9.17
2024-04-25T13:29:05.132Z,8.83
2024-04-25T13:30:05.155Z,9
2024-04-25T13:32:05.185Z,9
2024-04-25T13:33:05.229Z,8.33
2024-04-25T13:34:05.192Z,8.33
2024-04-25T13:35:05.127Z,8.67
2024-04-25T13:36:05.139Z,8.44
2024-04-25T13:37:05.130Z,8.44
2024-04-25T13:38:05.165Z,8.11
2024-04-25T13:39:05.149Z,8.17
2024-04-25T13:40:05.142Z,8.17
2024-04-25T13:41:05.149Z,7.72
2024-04-25T13:42:05.144Z,8.61
2024-04-25T13:44:05.152Z,8.39
2024-04-25T13:46:05.181Z,7.94
2024-04-25T13:48:05.238Z,9.17
2024-04-25T13:49:05.294Z,9.89
2024-04-25T13:51:05.142Z,9.5
2024-04-25T13:52:05.135Z,9.28
2024-04-25T13:53:05.150Z,9.78
2024-04-25T13:54:05.154Z,9.72
2024-04-25T13:55:05.155Z,10.67
2024-04-25T13:56:05.146Z,11.28
2024-04-25T13:57:05.152Z,10.06
2024-04-25T13:58:05.150Z,10.06
2024-04-25T14:00:05.141Z,8.78
2024-04-25T14:01:07.714Z,8.78
2024-04-25T14:02:05.273Z,8.94
2024-04-25T14:04:05.207Z,9.5
2024-04-25T14:06:05.164Z,10.67
2024-04-25T14:07:07.767Z,10.5
2024-04-25T14:08:05.191Z,9.94
2024-04-25T14:09:05.139Z,9.67
2024-04-25T14:10:05.151Z,10.22
2024-04-25T14:12:05.276Z,9.5
2024-04-25T14:14:05.153Z,9.67
2024-04-25T14:15:05.167Z,9.22
2024-04-25T14:16:05.181Z,9.78
2024-04-25T14:17:05.170Z,8.78
2024-04-25T14:18:05.367Z,8.5
2024-04-25T14:19:05.176Z,8.61
2024-04-25T14:20:05.164Z,8.39
2024-04-25T14:22:05.154Z,9.5
2024-04-25T14:23:05.158Z,9.06
2024-04-25T14:25:06.791Z,9.33
2024-04-25T14:27:05.159Z,11.94
2024-04-25T14:28:05.151Z,10.78
2024-04-25T14:29:05.143Z,10.22
2024-04-25T14:30:05.183Z,9.78
2024-04-25T14:31:05.181Z,9.5
2024-04-25T14:32:05.169Z,10.06
2024-04-25T14:33:05.286Z,10.22
2024-04-25T14:34:05.340Z,9.67
2024-04-25T14:35:05.141Z,8.61
2024-04-25T14:36:05.318Z,8.78
2024-04-25T14:38:05.173Z,9.22
2024-04-25T14:40:05.172Z,9.94
2024-04-25T14:41:07.980Z,10.06
2024-04-25T14:42:05.186Z,8.94
2024-04-25T14:43:05.157Z,8.39
2024-04-25T14:44:10.203Z,8.78
2024-04-25T14:45:05.176Z,8.94
2024-04-25T14:48:05.259Z,9.22
2024-04-25T14:49:05.245Z,9.5
2024-04-25T14:50:05.182Z,9.78
2024-04-25T14:51:05.155Z,9.94
2024-04-25T14:52:05.166Z,10.22
2024-04-25T14:53:07.104Z,10.06
2024-04-25T14:54:05.177Z,9.94
2024-04-25T14:56:05.170Z,9.5
2024-04-25T14:57:05.154Z,9.33
2024-04-25T14:58:05.167Z,9.67
2024-04-25T14:59:07.176Z,10.06
2024-04-25T15:00:05.162Z,9.78
2024-04-25T15:01:05.186Z,10.67
2024-04-25T15:02:05.221Z,10.94
2024-04-25T15:03:05.154Z,10.22
2024-04-25T15:04:05.162Z,10.22
2024-04-25T15:05:06.618Z,10.06
2024-04-25T15:06:05.166Z,10.22
2024-04-25T15:07:05.146Z,10.78
2024-04-25T15:09:05.191Z,9.67
2024-04-25T15:10:05.157Z,9.06
2024-04-25T15:11:05.170Z,8.94
2024-04-25T15:13:05.167Z,11.22
2024-04-25T15:15:08.608Z,13.17
2024-04-25T15:16:05.152Z,12.22
2024-04-25T15:17:05.214Z,11.94
2024-04-25T15:18:05.278Z,11.94
2024-04-25T15:20:05.168Z,12.11
2024-04-25T15:21:05.190Z,12.5
2024-04-25T15:22:05.205Z,12.17
2024-04-25T15:24:05.173Z,13.22
2024-04-25T15:27:05.194Z,12.78
2024-04-25T15:29:07.635Z,12.78
2024-04-25T15:31:05.177Z,12
2024-04-25T15:32:05.208Z,13.39
2024-04-25T15:34:05.412Z,12.61
2024-04-25T15:36:05.171Z,12.33
2024-04-25T15:37:05.193Z,11.72
2024-04-25T15:38:05.194Z,10.5
2024-04-25T15:40:05.171Z,12.33
2024-04-25T15:41:07.798Z,12.78
2024-04-25T15:42:05.167Z,11.94
2024-04-25T15:43:05.196Z,10.5
2024-04-25T15:45:05.250Z,9.94
2024-04-25T15:46:05.221Z,10.5
2024-04-25T15:47:05.183Z,10.67
2024-04-25T15:48:05.370Z,10.5
2024-04-25T15:50:05.192Z,12
2024-04-25T15:51:05.193Z,12.33
2024-04-25T15:52:05.178Z,12.78
2024-04-25T15:53:07.605Z,13.11
2024-04-25T15:54:05.225Z,12.33
2024-04-25T15:55:05.200Z,12.5
2024-04-25T15:56:05.174Z,12.94
2024-04-25T15:57:05.184Z,12.78
2024-04-25T15:58:05.188Z,13.56
2024-04-25T16:00:05.191Z,12.94
2024-04-25T16:02:05.196Z,14.28
2024-04-25T16:03:05.402Z,14.28
2024-04-25T16:04:05.221Z,14.28
2024-04-25T16:06:05.191Z,15.17
2024-04-25T16:08:05.197Z,13.83
2024-04-25T16:09:05.216Z,13.83
2024-04-25T16:10:05.227Z,14
2024-04-25T16:11:05.198Z,13.67
2024-04-25T16:13:05.192Z,13.39
2024-04-25T16:14:05.195Z,13.83
2024-04-25T16:15:05.211Z,13.56
2024-04-25T16:16:05.200Z,14
2024-04-25T16:17:05.263Z,13.22
2024-04-25T16:18:05.225Z,13.22
2024-04-25T16:19:05.207Z,12.78